sensor_id;sensor_type;location;lat;lon;timestamp;P1;durP1;ratioP1;P2;durP2;ratioP2
31126;SDS011;17775;57.948;12.514;2024-01-11T04:05:06;0.38;;;0.38;;
31126;SDS011;17775;57.948;12.514;2024-01-11T05:03:09;0.85;;;0.70;;
31126;SDS011;17775;57.948;12.514;2024-01-11T06:05:58;1.10;;;0.50;;
31126;SDS011;17775;57.948;12.514;2024-01-11T06:12:06;1.77;;;0.90;;
31126;SDS011;17775;57.948;12.514;2024-01-11T06:17:39;1.75;;;0.90;;
31126;SDS011;17775;57.948;12.514;2024-01-11T06:23:35;1.52;;;0.80;;
31126;SDS011;17775;57.948;12.514;2024-01-11T06:26:02;0.82;;;0.60;;
31126;SDS011;17775;57.948;12.514;2024-01-11T06:28:29;1.42;;;0.80;;
31126;SDS011;17775;57.948;12.514;2024-01-11T06:48:17;1.63;;;1.00;;
31126;SDS011;17775;57.948;12.514;2024-01-11T06:54:21;2.55;;;1.40;;
31126;SDS011;17775;57.948;12.514;2024-01-11T07:00:12;1.92;;;1.20;;
31126;SDS011;17775;57.948;12.514;2024-01-11T07:06:58;2.75;;;1.30;;
31126;SDS011;17775;57.948;12.514;2024-01-11T07:16:30;1.63;;;1.10;;
31126;SDS011;17775;57.948;12.514;2024-01-11T07:21:24;1.10;;;0.80;;
31126;SDS011;17775;57.948;12.514;2024-01-11T07:27:26;1.38;;;0.80;;
31126;SDS011;17775;57.948;12.514;2024-01-11T07:33:22;1.88;;;1.00;;
31126;SDS011;17775;57.948;12.514;2024-01-11T07:35:49;1.88;;;0.90;;
31126;SDS011;17775;57.948;12.514;2024-01-11T07:38:17;1.30;;;0.85;;
31126;SDS011;17775;57.948;12.514;2024-01-11T07:41:02;1.85;;;1.00;;
31126;SDS011;17775;57.948;12.514;2024-01-11T07:50:05;2.58;;;1.30;;
31126;SDS011;17775;57.948;12.514;2024-01-11T07:52:33;1.63;;;0.93;;
31126;SDS011;17775;57.948;12.514;2024-01-11T07:55:02;1.55;;;0.93;;
31126;SDS011;17775;57.948;12.514;2024-01-11T08:01:02;1.42;;;0.80;;
31126;SDS011;17775;57.948;12.514;2024-01-11T08:06:58;1.27;;;0.80;;
31126;SDS011;17775;57.948;12.514;2024-01-11T08:09:30;1.45;;;0.70;;
31126;SDS011;17775;57.948;12.514;2024-01-11T08:11:57;0.80;;;0.60;;
31126;SDS011;17775;57.948;12.514;2024-01-11T08:14:24;0.60;;;0.50;;
31126;SDS011;17775;57.948;12.514;2024-01-11T08:16:51;0.60;;;0.52;;
31126;SDS011;17775;57.948;12.514;2024-01-11T08:19:20;1.02;;;0.60;;
31126;SDS011;17775;57.948;12.514;2024-01-11T08:21:47;1.17;;;0.75;;
31126;SDS011;17775;57.948;12.514;2024-01-11T08:24:14;1.40;;;0.82;;
31126;SDS011;17775;57.948;12.514;2024-01-11T08:26:41;1.60;;;1.00;;
31126;SDS011;17775;57.948;12.514;2024-01-11T08:32:42;2.00;;;1.00;;
31126;SDS011;17775;57.948;12.514;2024-01-11T08:38:44;1.38;;;0.90;;
31126;SDS011;17775;57.948;12.514;2024-01-11T08:44:48;1.55;;;1.10;;
31126;SDS011;17775;57.948;12.514;2024-01-11T08:47:15;1.50;;;0.88;;
31126;SDS011;17775;57.948;12.514;2024-01-11T08:49:42;2.75;;;1.25;;
31126;SDS011;17775;57.948;12.514;2024-01-11T08:52:08;2.00;;;1.30;;
31126;SDS011;17775;57.948;12.514;2024-01-11T08:54:36;3.88;;;1.70;;
31126;SDS011;17775;57.948;12.514;2024-01-11T08:57:03;3.10;;;1.65;;
31126;SDS011;17775;57.948;12.514;2024-01-11T08:59:30;2.65;;;1.30;;
31126;SDS011;17775;57.948;12.514;2024-01-11T09:01:57;3.63;;;1.42;;
31126;SDS011;17775;57.948;12.514;2024-01-11T09:04:40;2.90;;;1.52;;
31126;SDS011;17775;57.948;12.514;2024-01-11T09:07:09;1.88;;;1.20;;
31126;SDS011;17775;57.948;12.514;2024-01-11T09:13:04;3.65;;;1.70;;
31126;SDS011;17775;57.948;12.514;2024-01-11T09:15:31;6.47;;;2.80;;
31126;SDS011;17775;57.948;12.514;2024-01-11T09:18:01;5.22;;;3.13;;
31126;SDS011;17775;57.948;12.514;2024-01-11T09:20:28;4.75;;;3.13;;
31126;SDS011;17775;57.948;12.514;2024-01-11T09:22:55;5.50;;;3.13;;
31126;SDS011;17775;57.948;12.514;2024-01-11T09:25:21;3.53;;;2.33;;
31126;SDS011;17775;57.948;12.514;2024-01-11T09:27:49;3.80;;;2.17;;
31126;SDS011;17775;57.948;12.514;2024-01-11T09:30:16;4.65;;;2.40;;
31126;SDS011;17775;57.948;12.514;2024-01-11T09:32:48;4.85;;;2.75;;
31126;SDS011;17775;57.948;12.514;2024-01-11T09:35:15;5.68;;;2.83;;
31126;SDS011;17775;57.948;12.514;2024-01-11T09:41:12;4.35;;;2.67;;
31126;SDS011;17775;57.948;12.514;2024-01-11T09:47:15;4.47;;;2.80;;
31126;SDS011;17775;57.948;12.514;2024-01-11T09:53:18;4.30;;;2.22;;
31126;SDS011;17775;57.948;12.514;2024-01-11T09:55:53;4.60;;;2.22;;
31126;SDS011;17775;57.948;12.514;2024-01-11T09:58:25;3.47;;;2.08;;
31126;SDS011;17775;57.948;12.514;2024-01-11T10:53:12;9.05;;;5.15;;
31126;SDS011;17775;57.948;12.514;2024-01-11T10:55:44;6.10;;;4.20;;
31126;SDS011;17775;57.948;12.514;2024-01-11T10:58:11;5.53;;;3.65;;
31126;SDS011;17775;57.948;12.514;2024-01-11T11:00:38;5.30;;;3.50;;
31126;SDS011;17775;57.948;12.514;2024-01-11T11:03:05;6.38;;;4.10;;
31126;SDS011;17775;57.948;12.514;2024-01-11T11:05:36;5.85;;;3.60;;
31126;SDS011;17775;57.948;12.514;2024-01-11T11:08:03;5.57;;;3.40;;
31126;SDS011;17775;57.948;12.514;2024-01-11T11:10:30;4.80;;;2.92;;
31126;SDS011;17775;57.948;12.514;2024-01-11T11:12:57;4.35;;;2.88;;
31126;SDS011;17775;57.948;12.514;2024-01-11T11:15:29;4.50;;;3.08;;
31126;SDS011;17775;57.948;12.514;2024-01-11T11:17:56;5.20;;;3.45;;
31126;SDS011;17775;57.948;12.514;2024-01-11T11:20:23;3.70;;;2.47;;
31126;SDS011;17775;57.948;12.514;2024-01-11T11:23:05;3.55;;;2.10;;
31126;SDS011;17775;57.948;12.514;2024-01-11T11:25:32;3.63;;;2.85;;
31126;SDS011;17775;57.948;12.514;2024-01-11T11:27:59;3.03;;;1.85;;
31126;SDS011;17775;57.948;12.514;2024-01-11T11:36:56;2.00;;;1.23;;
31126;SDS011;17775;57.948;12.514;2024-01-11T11:39:24;2.22;;;1.83;;
31126;SDS011;17775;57.948;12.514;2024-01-11T12:36:44;7.15;;;4.25;;
31126;SDS011;17775;57.948;12.514;2024-01-11T12:39:11;8.05;;;4.55;;
31126;SDS011;17775;57.948;12.514;2024-01-11T12:41:44;6.20;;;4.78;;
31126;SDS011;17775;57.948;12.514;2024-01-11T12:44:11;5.97;;;4.25;;
31126;SDS011;17775;57.948;12.514;2024-01-11T12:46:37;5.38;;;3.60;;
31126;SDS011;17775;57.948;12.514;2024-01-11T12:49:10;5.43;;;3.72;;
31126;SDS011;17775;57.948;12.514;2024-01-11T13:05:37;3.17;;;2.38;;
31126;SDS011;17775;57.948;12.514;2024-01-11T13:22:05;1.90;;;1.25;;
31126;SDS011;17775;57.948;12.514;2024-01-11T14:36:12;2.05;;;1.17;;
31126;SDS011;17775;57.948;12.514;2024-01-11T14:38:41;1.40;;;0.80;;
31126;SDS011;17775;57.948;12.514;2024-01-11T15:02:28;1.33;;;0.73;;
31126;SDS011;17775;57.948;12.514;2024-01-11T15:07:22;1.98;;;0.90;;
31126;SDS011;17775;57.948;12.514;2024-01-11T15:09:59;1.45;;;0.93;;
31126;SDS011;17775;57.948;12.514;2024-01-11T15:12:28;1.73;;;1.10;;
31126;SDS011;17775;57.948;12.514;2024-01-11T15:14:55;0.98;;;0.73;;
31126;SDS011;17775;57.948;12.514;2024-01-11T15:20:48;1.40;;;0.90;;
31126;SDS011;17775;57.948;12.514;2024-01-11T15:23:15;1.48;;;0.93;;
31126;SDS011;17775;57.948;12.514;2024-01-11T15:25:42;1.65;;;0.93;;
31126;SDS011;17775;57.948;12.514;2024-01-11T15:28:10;1.73;;;1.10;;
31126;SDS011;17775;57.948;12.514;2024-01-11T15:30:37;1.33;;;0.93;;
31126;SDS011;17775;57.948;12.514;2024-01-11T15:33:06;1.17;;;0.80;;
31126;SDS011;17775;57.948;12.514;2024-01-11T15:35:33;1.40;;;0.90;;
31126;SDS011;17775;57.948;12.514;2024-01-11T15:38:01;1.50;;;1.13;;
31126;SDS011;17775;57.948;12.514;2024-01-11T15:40:28;1.23;;;0.82;;
31126;SDS011;17775;57.948;12.514;2024-01-11T15:42:55;0.98;;;0.68;;
31126;SDS011;17775;57.948;12.514;2024-01-11T15:45:21;2.17;;;0.98;;
31126;SDS011;17775;57.948;12.514;2024-01-11T15:47:48;1.10;;;0.80;;
31126;SDS011;17775;57.948;12.514;2024-01-11T15:50:17;1.52;;;0.77;;
31126;SDS011;17775;57.948;12.514;2024-01-11T15:52:44;1.67;;;0.70;;
31126;SDS011;17775;57.948;12.514;2024-01-11T15:55:10;1.25;;;0.80;;
31126;SDS011;17775;57.948;12.514;2024-01-11T15:57:37;0.98;;;0.70;;
31126;SDS011;17775;57.948;12.514;2024-01-11T16:00:07;0.85;;;0.60;;
31126;SDS011;17775;57.948;12.514;2024-01-11T16:06:05;1.23;;;0.90;;
31126;SDS011;17775;57.948;12.514;2024-01-11T16:12:01;1.63;;;0.80;;
31126;SDS011;17775;57.948;12.514;2024-01-11T16:14:31;0.88;;;0.70;;
31126;SDS011;17775;57.948;12.514;2024-01-11T16:16:58;1.88;;;1.00;;
31126;SDS011;17775;57.948;12.514;2024-01-11T16:19:25;2.53;;;1.40;;
31126;SDS011;17775;57.948;12.514;2024-01-11T16:21:52;1.77;;;1.17;;
31126;SDS011;17775;57.948;12.514;2024-01-11T16:24:18;1.65;;;0.90;;
31126;SDS011;17775;57.948;12.514;2024-01-11T16:26:45;1.65;;;0.88;;
31126;SDS011;17775;57.948;12.514;2024-01-11T16:29:12;3.30;;;1.70;;
31126;SDS011;17775;57.948;12.514;2024-01-11T16:31:39;3.15;;;2.05;;
31126;SDS011;17775;57.948;12.514;2024-01-11T16:34:09;3.83;;;2.10;;
31126;SDS011;17775;57.948;12.514;2024-01-11T16:36:37;3.22;;;1.80;;
31126;SDS011;17775;57.948;12.514;2024-01-11T16:39:04;4.53;;;2.15;;
31126;SDS011;17775;57.948;12.514;2024-01-11T16:41:35;4.13;;;2.45;;
31126;SDS011;17775;57.948;12.514;2024-01-11T16:44:03;4.03;;;2.97;;
31126;SDS011;17775;57.948;12.514;2024-01-11T16:46:30;5.05;;;3.00;;
31126;SDS011;17775;57.948;12.514;2024-01-11T16:48:59;4.13;;;2.60;;
31126;SDS011;17775;57.948;12.514;2024-01-11T16:51:27;3.25;;;2.10;;
31126;SDS011;17775;57.948;12.514;2024-01-11T16:53:56;2.83;;;2.05;;
31126;SDS011;17775;57.948;12.514;2024-01-11T16:56:23;3.08;;;1.90;;
31126;SDS011;17775;57.948;12.514;2024-01-11T16:58:50;2.60;;;1.80;;
31126;SDS011;17775;57.948;12.514;2024-01-11T17:01:16;3.33;;;2.17;;
31126;SDS011;17775;57.948;12.514;2024-01-11T17:03:43;2.97;;;1.90;;
31126;SDS011;17775;57.948;12.514;2024-01-11T17:06:10;3.40;;;1.92;;
31126;SDS011;17775;57.948;12.514;2024-01-11T17:08:36;2.95;;;1.90;;
31126;SDS011;17775;57.948;12.514;2024-01-11T17:11:03;3.35;;;2.20;;
31126;SDS011;17775;57.948;12.514;2024-01-11T17:13:30;3.03;;;2.17;;
31126;SDS011;17775;57.948;12.514;2024-01-11T17:15:57;3.33;;;1.85;;
31126;SDS011;17775;57.948;12.514;2024-01-11T17:18:26;2.40;;;1.52;;
31126;SDS011;17775;57.948;12.514;2024-01-11T17:20:53;2.85;;;1.48;;
31126;SDS011;17775;57.948;12.514;2024-01-11T17:23:20;5.47;;;2.67;;
31126;SDS011;17775;57.948;12.514;2024-01-11T17:25:47;3.97;;;2.50;;
31126;SDS011;17775;57.948;12.514;2024-01-11T17:28:15;4.20;;;2.40;;
31126;SDS011;17775;57.948;12.514;2024-01-11T17:30:45;3.30;;;2.35;;
31126;SDS011;17775;57.948;12.514;2024-01-11T17:33:12;3.15;;;1.75;;
31126;SDS011;17775;57.948;12.514;2024-01-11T17:35:39;3.03;;;1.95;;
31126;SDS011;17775;57.948;12.514;2024-01-11T17:38:07;4.15;;;2.40;;
31126;SDS011;17775;57.948;12.514;2024-01-11T17:40:33;5.35;;;3.03;;
31126;SDS011;17775;57.948;12.514;2024-01-11T17:43:11;4.50;;;2.80;;
31126;SDS011;17775;57.948;12.514;2024-01-11T17:45:42;3.83;;;2.42;;
31126;SDS011;17775;57.948;12.514;2024-01-11T17:48:09;5.63;;;2.75;;
31126;SDS011;17775;57.948;12.514;2024-01-11T17:50:36;4.38;;;2.70;;
31126;SDS011;17775;57.948;12.514;2024-01-11T17:53:05;4.55;;;2.88;;
31126;SDS011;17775;57.948;12.514;2024-01-11T17:55:32;3.35;;;2.10;;
31126;SDS011;17775;57.948;12.514;2024-01-11T17:57:58;3.22;;;2.13;;
31126;SDS011;17775;57.948;12.514;2024-01-11T18:00:25;3.88;;;2.40;;
31126;SDS011;17775;57.948;12.514;2024-01-11T18:05:23;3.83;;;2.70;;
31126;SDS011;17775;57.948;12.514;2024-01-11T18:07:50;4.10;;;2.30;;
31126;SDS011;17775;57.948;12.514;2024-01-11T18:10:16;2.92;;;1.95;;
31126;SDS011;17775;57.948;12.514;2024-01-11T18:12:45;3.17;;;2.00;;
31126;SDS011;17775;57.948;12.514;2024-01-11T18:15:18;3.42;;;2.10;;
31126;SDS011;17775;57.948;12.514;2024-01-11T18:17:45;2.35;;;1.80;;
31126;SDS011;17775;57.948;12.514;2024-01-11T18:20:12;2.63;;;1.80;;
31126;SDS011;17775;57.948;12.514;2024-01-11T18:22:38;2.50;;;1.52;;
31126;SDS011;17775;57.948;12.514;2024-01-11T18:25:05;3.45;;;2.10;;
31126;SDS011;17775;57.948;12.514;2024-01-11T18:27:32;2.90;;;2.03;;
31126;SDS011;17775;57.948;12.514;2024-01-11T18:30:01;2.05;;;1.27;;
31126;SDS011;17775;57.948;12.514;2024-01-11T18:32:33;2.95;;;1.73;;
31126;SDS011;17775;57.948;12.514;2024-01-11T18:34:59;2.60;;;1.77;;
31126;SDS011;17775;57.948;12.514;2024-01-11T18:37:26;2.85;;;1.80;;
31126;SDS011;17775;57.948;12.514;2024-01-11T18:39:53;3.83;;;2.40;;
31126;SDS011;17775;57.948;12.514;2024-01-11T18:42:24;2.95;;;2.08;;
31126;SDS011;17775;57.948;12.514;2024-01-11T18:44:50;2.72;;;1.83;;
31126;SDS011;17775;57.948;12.514;2024-01-11T18:47:17;3.38;;;2.00;;
31126;SDS011;17775;57.948;12.514;2024-01-11T18:49:44;2.35;;;1.63;;
31126;SDS011;17775;57.948;12.514;2024-01-11T18:52:11;3.00;;;1.50;;
31126;SDS011;17775;57.948;12.514;2024-01-11T18:54:37;2.80;;;1.73;;
31126;SDS011;17775;57.948;12.514;2024-01-11T18:57:05;3.25;;;1.98;;
31126;SDS011;17775;57.948;12.514;2024-01-11T18:59:33;4.60;;;2.50;;
31126;SDS011;17775;57.948;12.514;2024-01-11T19:02:00;2.78;;;1.83;;
31126;SDS011;17775;57.948;12.514;2024-01-11T19:04:27;2.45;;;1.80;;
31126;SDS011;17775;57.948;12.514;2024-01-11T19:06:53;2.42;;;1.63;;
31126;SDS011;17775;57.948;12.514;2024-01-11T19:09:21;2.70;;;1.65;;
31126;SDS011;17775;57.948;12.514;2024-01-11T19:11:50;3.20;;;1.52;;
31126;SDS011;17775;57.948;12.514;2024-01-11T19:14:17;3.08;;;1.48;;
31126;SDS011;17775;57.948;12.514;2024-01-11T19:16:44;2.85;;;1.70;;
31126;SDS011;17775;57.948;12.514;2024-01-11T19:19:13;2.25;;;1.60;;
31126;SDS011;17775;57.948;12.514;2024-01-11T19:21:40;2.60;;;1.58;;
31126;SDS011;17775;57.948;12.514;2024-01-11T19:24:07;2.78;;;1.80;;
31126;SDS011;17775;57.948;12.514;2024-01-11T19:26:40;2.47;;;1.58;;
31126;SDS011;17775;57.948;12.514;2024-01-11T19:29:08;2.45;;;1.60;;
31126;SDS011;17775;57.948;12.514;2024-01-11T19:31:35;2.28;;;1.50;;
31126;SDS011;17775;57.948;12.514;2024-01-11T19:34:02;1.67;;;1.13;;
31126;SDS011;17775;57.948;12.514;2024-01-11T19:36:29;2.72;;;1.60;;
31126;SDS011;17775;57.948;12.514;2024-01-11T19:38:56;2.92;;;1.42;;
31126;SDS011;17775;57.948;12.514;2024-01-11T19:41:27;4.38;;;2.30;;
31126;SDS011;17775;57.948;12.514;2024-01-11T19:43:58;3.72;;;2.42;;
31126;SDS011;17775;57.948;12.514;2024-01-11T19:46:28;3.33;;;2.15;;
31126;SDS011;17775;57.948;12.514;2024-01-11T19:48:56;3.33;;;2.10;;
31126;SDS011;17775;57.948;12.514;2024-01-11T19:51:23;3.10;;;1.73;;
31126;SDS011;17775;57.948;12.514;2024-01-11T19:53:49;3.80;;;2.13;;
31126;SDS011;17775;57.948;12.514;2024-01-11T19:56:17;3.00;;;2.00;;
31126;SDS011;17775;57.948;12.514;2024-01-11T19:58:44;2.70;;;1.60;;
31126;SDS011;17775;57.948;12.514;2024-01-11T20:01:14;2.40;;;1.70;;
31126;SDS011;17775;57.948;12.514;2024-01-11T20:03:41;2.53;;;1.80;;
31126;SDS011;17775;57.948;12.514;2024-01-11T20:06:09;2.78;;;1.77;;
31126;SDS011;17775;57.948;12.514;2024-01-11T20:08:36;2.47;;;1.67;;
31126;SDS011;17775;57.948;12.514;2024-01-11T20:11:03;2.22;;;1.30;;
31126;SDS011;17775;57.948;12.514;2024-01-11T20:13:30;1.95;;;1.20;;
31126;SDS011;17775;57.948;12.514;2024-01-11T20:16:00;2.95;;;1.60;;
31126;SDS011;17775;57.948;12.514;2024-01-11T20:18:28;2.05;;;1.50;;
31126;SDS011;17775;57.948;12.514;2024-01-11T20:20:55;1.98;;;1.20;;
31126;SDS011;17775;57.948;12.514;2024-01-11T20:23:22;2.10;;;1.20;;
31126;SDS011;17775;57.948;12.514;2024-01-11T20:25:49;1.60;;;1.13;;
31126;SDS011;17775;57.948;12.514;2024-01-11T20:28:19;2.17;;;1.27;;
31126;SDS011;17775;57.948;12.514;2024-01-11T20:30:46;2.17;;;1.20;;
31126;SDS011;17775;57.948;12.514;2024-01-11T20:33:16;1.38;;;1.00;;
31126;SDS011;17775;57.948;12.514;2024-01-11T20:35:48;1.80;;;1.08;;
31126;SDS011;17775;57.948;12.514;2024-01-11T20:38:15;1.67;;;1.20;;
31126;SDS011;17775;57.948;12.514;2024-01-11T20:43:48;0.98;;;0.65;;
31126;SDS011;17775;57.948;12.514;2024-01-11T20:46:21;1.85;;;0.90;;
31126;SDS011;17775;57.948;12.514;2024-01-11T20:48:49;1.20;;;0.75;;
31126;SDS011;17775;57.948;12.514;2024-01-11T20:51:16;1.70;;;0.88;;
31126;SDS011;17775;57.948;12.514;2024-01-11T20:53:46;1.23;;;0.80;;
31126;SDS011;17775;57.948;12.514;2024-01-11T20:56:14;1.38;;;0.63;;
31126;SDS011;17775;57.948;12.514;2024-01-11T20:58:43;1.23;;;0.77;;
31126;SDS011;17775;57.948;12.514;2024-01-11T21:01:10;0.70;;;0.70;;
31126;SDS011;17775;57.948;12.514;2024-01-11T21:03:38;1.17;;;0.73;;
31126;SDS011;17775;57.948;12.514;2024-01-11T21:06:08;0.80;;;0.70;;
31126;SDS011;17775;57.948;12.514;2024-01-11T21:08:35;0.98;;;0.70;;
31126;SDS011;17775;57.948;12.514;2024-01-11T21:11:02;0.82;;;0.63;;
31126;SDS011;17775;57.948;12.514;2024-01-11T21:13:28;1.42;;;0.88;;
31126;SDS011;17775;57.948;12.514;2024-01-11T21:15:55;0.88;;;0.60;;
31126;SDS011;17775;57.948;12.514;2024-01-11T21:18:23;1.10;;;0.60;;
31126;SDS011;17775;57.948;12.514;2024-01-11T21:20:50;1.08;;;0.70;;
31126;SDS011;17775;57.948;12.514;2024-01-11T21:23:17;0.90;;;0.60;;
31126;SDS011;17775;57.948;12.514;2024-01-11T21:25:43;0.63;;;0.52;;
31126;SDS011;17775;57.948;12.514;2024-01-11T21:28:10;0.57;;;0.47;;
31126;SDS011;17775;57.948;12.514;2024-01-11T21:30:40;0.60;;;0.50;;
31126;SDS011;17775;57.948;12.514;2024-01-11T21:33:07;0.93;;;0.60;;
31126;SDS011;17775;57.948;12.514;2024-01-11T21:35:34;0.80;;;0.50;;
31126;SDS011;17775;57.948;12.514;2024-01-11T21:38:00;0.90;;;0.50;;
31126;SDS011;17775;57.948;12.514;2024-01-11T21:40:28;0.40;;;0.40;;
31126;SDS011;17775;57.948;12.514;2024-01-11T21:42:55;0.68;;;0.47;;
31126;SDS011;17775;57.948;12.514;2024-01-11T21:45:21;0.73;;;0.57;;
31126;SDS011;17775;57.948;12.514;2024-01-11T21:47:47;1.00;;;0.60;;
31126;SDS011;17775;57.948;12.514;2024-01-11T21:50:17;0.60;;;0.60;;
31126;SDS011;17775;57.948;12.514;2024-01-11T21:52:44;0.88;;;0.60;;
31126;SDS011;17775;57.948;12.514;2024-01-11T21:55:12;0.98;;;0.60;;
31126;SDS011;17775;57.948;12.514;2024-01-11T21:57:42;0.82;;;0.65;;
31126;SDS011;17775;57.948;12.514;2024-01-11T22:00:08;0.50;;;0.50;;
31126;SDS011;17775;57.948;12.514;2024-01-11T22:02:35;0.75;;;0.60;;
31126;SDS011;17775;57.948;12.514;2024-01-11T22:05:01;0.73;;;0.52;;
31126;SDS011;17775;57.948;12.514;2024-01-11T22:07:28;1.00;;;0.65;;
31126;SDS011;17775;57.948;12.514;2024-01-11T22:09:56;0.90;;;0.63;;
31126;SDS011;17775;57.948;12.514;2024-01-11T22:12:22;1.00;;;0.60;;
31126;SDS011;17775;57.948;12.514;2024-01-11T22:14:50;0.85;;;0.65;;
31126;SDS011;17775;57.948;12.514;2024-01-11T22:17:16;1.00;;;0.68;;
31126;SDS011;17775;57.948;12.514;2024-01-11T22:19:43;0.60;;;0.50;;
31126;SDS011;17775;57.948;12.514;2024-01-11T22:22:13;1.08;;;0.60;;
31126;SDS011;17775;57.948;12.514;2024-01-11T22:24:40;1.15;;;0.60;;
31126;SDS011;17775;57.948;12.514;2024-01-11T22:27:06;0.90;;;0.50;;
31126;SDS011;17775;57.948;12.514;2024-01-11T22:29:33;0.70;;;0.50;;
31126;SDS011;17775;57.948;12.514;2024-01-11T22:32:03;0.45;;;0.40;;
31126;SDS011;17775;57.948;12.514;2024-01-11T22:34:30;0.47;;;0.47;;
31126;SDS011;17775;57.948;12.514;2024-01-11T22:36:56;0.63;;;0.45;;
31126;SDS011;17775;57.948;12.514;2024-01-11T22:39:23;0.65;;;0.40;;
31126;SDS011;17775;57.948;12.514;2024-01-11T22:41:50;0.43;;;0.40;;
31126;SDS011;17775;57.948;12.514;2024-01-11T22:44:17;0.32;;;0.32;;
31126;SDS011;17775;57.948;12.514;2024-01-11T22:46:43;0.32;;;0.30;;
31126;SDS011;17775;57.948;12.514;2024-01-11T22:49:13;0.63;;;0.50;;
31126;SDS011;17775;57.948;12.514;2024-01-11T22:51:40;0.85;;;0.50;;
31126;SDS011;17775;57.948;12.514;2024-01-11T22:54:06;0.40;;;0.40;;
31126;SDS011;17775;57.948;12.514;2024-01-11T22:56:33;1.05;;;0.57;;
31126;SDS011;17775;57.948;12.514;2024-01-11T22:59:02;0.30;;;0.30;;
31126;SDS011;17775;57.948;12.514;2024-01-11T23:01:29;0.52;;;0.40;;
31126;SDS011;17775;57.948;12.514;2024-01-11T23:03:55;0.55;;;0.50;;
31126;SDS011;17775;57.948;12.514;2024-01-11T23:06:23;0.70;;;0.60;;
31126;SDS011;17775;57.948;12.514;2024-01-11T23:08:50;0.60;;;0.43;;
31126;SDS011;17775;57.948;12.514;2024-01-11T23:11:16;0.68;;;0.50;;
31126;SDS011;17775;57.948;12.514;2024-01-11T23:13:43;0.70;;;0.47;;
31126;SDS011;17775;57.948;12.514;2024-01-11T23:16:09;0.63;;;0.50;;
31126;SDS011;17775;57.948;12.514;2024-01-11T23:18:36;0.68;;;0.52;;
31126;SDS011;17775;57.948;12.514;2024-01-11T23:21:04;0.98;;;0.65;;
31126;SDS011;17775;57.948;12.514;2024-01-11T23:23:30;0.70;;;0.50;;
31126;SDS011;17775;57.948;12.514;2024-01-11T23:26:00;0.73;;;0.50;;
31126;SDS011;17775;57.948;12.514;2024-01-11T23:28:26;0.90;;;0.60;;
31126;SDS011;17775;57.948;12.514;2024-01-11T23:30:53;0.80;;;0.52;;
31126;SDS011;17775;57.948;12.514;2024-01-11T23:33:20;0.70;;;0.63;;
31126;SDS011;17775;57.948;12.514;2024-01-11T23:35:47;0.65;;;0.60;;
31126;SDS011;17775;57.948;12.514;2024-01-11T23:38:15;1.00;;;0.60;;
31126;SDS011;17775;57.948;12.514;2024-01-11T23:40:42;0.57;;;0.57;;
31126;SDS011;17775;57.948;12.514;2024-01-11T23:43:11;0.80;;;0.45;;
31126;SDS011;17775;57.948;12.514;2024-01-11T23:45:39;0.55;;;0.50;;
31126;SDS011;17775;57.948;12.514;2024-01-11T23:48:07;0.88;;;0.50;;
31126;SDS011;17775;57.948;12.514;2024-01-11T23:50:34;0.65;;;0.50;;
31126;SDS011;17775;57.948;12.514;2024-01-11T23:53:01;0.70;;;0.60;;
31126;SDS011;17775;57.948;12.514;2024-01-11T23:55:27;1.10;;;0.70;;
31126;SDS011;17775;57.948;12.514;2024-01-11T23:57:57;1.00;;;0.60;;
